sensor_id;sensor_type;location;lat;lon;timestamp;temperature;humidity
17992;DHT22;9121;50.926;5.340;2022-10-18T00:02:09;16.00;99.90
17992;DHT22;9121;50.926;5.340;2022-10-18T00:04:35;16.00;99.90
17992;DHT22;9121;50.926;5.340;2022-10-18T00:07:03;16.00;99.90
17992;DHT22;9121;50.926;5.340;2022-10-18T00:09:29;16.00;99.90
17992;DHT22;9121;50.926;5.340;2022-10-18T00:11:58;16.00;99.90
17992;DHT22;9121;50.926;5.340;2022-10-18T00:14:25;16.00;99.90
17992;DHT22;9121;50.926;5.340;2022-10-18T00:16:52;16.00;99.90
17992;DHT22;9121;50.926;5.340;2022-10-18T00:19:19;16.00;99.90
17992;DHT22;9121;50.926;5.340;2022-10-18T00:21:48;16.00;99.90
17992;DHT22;9121;50.926;5.340;2022-10-18T00:24:15;15.90;99.90
17992;DHT22;9121;50.926;5.340;2022-10-18T00:26:43;15.90;99.90
17992;DHT22;9121;50.926;5.340;2022-10-18T00:29:13;15.90;99.90
17992;DHT22;9121;50.926;5.340;2022-10-18T00:31:42;15.90;99.90
17992;DHT22;9121;50.926;5.340;2022-10-18T00:34:11;15.90;99.90
17992;DHT22;9121;50.926;5.340;2022-10-18T00:36:39;16.10;99.90
17992;DHT22;9121;50.926;5.340;2022-10-18T00:39:07;16.10;99.90
17992;DHT22;9121;50.926;5.340;2022-10-18T00:41:36;16.10;99.90
17992;DHT22;9121;50.926;5.340;2022-10-18T00:44:06;16.10;99.90
17992;DHT22;9121;50.926;5.340;2022-10-18T00:46:36;16.20;99.90
17992;DHT22;9121;50.926;5.340;2022-10-18T00:49:05;16.10;99.90
17992;DHT22;9121;50.926;5.340;2022-10-18T00:51:37;16.20;99.90
17992;DHT22;9121;50.926;5.340;2022-10-18T00:54:05;16.10;99.90
17992;DHT22;9121;50.926;5.340;2022-10-18T00:56:33;16.10;99.90
17992;DHT22;9121;50.926;5.340;2022-10-18T00:59:00;16.10;99.90
17992;DHT22;9121;50.926;5.340;2022-10-18T01:01:27;16.10;99.90
17992;DHT22;9121;50.926;5.340;2022-10-18T01:03:56;16.00;99.90
17992;DHT22;9121;50.926;5.340;2022-10-18T01:06:24;16.00;99.90
17992;DHT22;9121;50.926;5.340;2022-10-18T01:09:07;16.00;99.90
17992;DHT22;9121;50.926;5.340;2022-10-18T01:11:56;15.90;99.90
17992;DHT22;9121;50.926;5.340;2022-10-18T01:14:37;15.90;99.90
17992;DHT22;9121;50.926;5.340;2022-10-18T01:17:10;15.90;99.90
17992;DHT22;9121;50.926;5.340;2022-10-18T01:22:43;15.90;99.90
17992;DHT22;9121;50.926;5.340;2022-10-18T01:25:22;15.90;99.90
17992;DHT22;9121;50.926;5.340;2022-10-18T01:27:57;15.90;99.90
17992;DHT22;9121;50.926;5.340;2022-10-18T01:30:42;15.90;99.90
17992;DHT22;9121;50.926;5.340;2022-10-18T01:33:18;15.90;99.90
17992;DHT22;9121;50.926;5.340;2022-10-18T01:35:50;15.90;99.90
17992;DHT22;9121;50.926;5.340;2022-10-18T01:38:19;16.00;99.90
17992;DHT22;9121;50.926;5.340;2022-10-18T01:40:48;16.00;99.90
17992;DHT22;9121;50.926;5.340;2022-10-18T01:43:16;16.00;99.90
17992;DHT22;9121;50.926;5.340;2022-10-18T01:45:45;16.00;99.90
17992;DHT22;9121;50.926;5.340;2022-10-18T01:48:13;16.00;99.90
17992;DHT22;9121;50.926;5.340;2022-10-18T01:50:40;16.10;99.90
17992;DHT22;9121;50.926;5.340;2022-10-18T01:53:23;16.10;99.90
17992;DHT22;9121;50.926;5.340;2022-10-18T01:56:02;16.20;99.90
17992;DHT22;9121;50.926;5.340;2022-10-18T01:58:36;16.30;99.90
17992;DHT22;9121;50.926;5.340;2022-10-18T02:01:09;16.40;99.90
17992;DHT22;9121;50.926;5.340;2022-10-18T02:03:42;16.50;99.90
17992;DHT22;9121;50.926;5.340;2022-10-18T02:06:17;16.50;99.90
17992;DHT22;9121;50.926;5.340;2022-10-18T02:08:48;16.50;99.90
17992;DHT22;9121;50.926;5.340;2022-10-18T02:11:16;16.50;99.90
17992;DHT22;9121;50.926;5.340;2022-10-18T02:13:47;16.50;99.90
17992;DHT22;9121;50.926;5.340;2022-10-18T02:16:21;16.40;99.90
17992;DHT22;9121;50.926;5.340;2022-10-18T02:18:53;16.30;99.90
17992;DHT22;9121;50.926;5.340;2022-10-18T02:21:21;16.30;99.90
17992;DHT22;9121;50.926;5.340;2022-10-18T02:23:51;16.20;99.90
17992;DHT22;9121;50.926;5.340;2022-10-18T02:26:18;16.20;99.90
17992;DHT22;9121;50.926;5.340;2022-10-18T02:28:45;16.20;99.90
17992;DHT22;9121;50.926;5.340;2022-10-18T02:31:17;16.20;99.90
17992;DHT22;9121;50.926;5.340;2022-10-18T02:33:52;16.40;99.90
17992;DHT22;9121;50.926;5.340;2022-10-18T02:36:24;16.50;99.90
17992;DHT22;9121;50.926;5.340;2022-10-18T02:38:55;16.50;99.90
17992;DHT22;9121;50.926;5.340;2022-10-18T02:41:23;16.40;99.90
17992;DHT22;9121;50.926;5.340;2022-10-18T02:43:51;16.40;99.90
17992;DHT22;9121;50.926;5.340;2022-10-18T02:46:18;16.40;99.90
17992;DHT22;9121;50.926;5.340;2022-10-18T02:48:47;16.40;99.90
17992;DHT22;9121;50.926;5.340;2022-10-18T02:51:14;16.40;99.90
17992;DHT22;9121;50.926;5.340;2022-10-18T02:53:41;16.40;99.90
17992;DHT22;9121;50.926;5.340;2022-10-18T02:56:08;16.40;99.90
17992;DHT22;9121;50.926;5.340;2022-10-18T02:58:35;16.40;99.90
17992;DHT22;9121;50.926;5.340;2022-10-18T03:01:02;16.40;99.90
17992;DHT22;9121;50.926;5.340;2022-10-18T03:03:29;16.30;99.90
17992;DHT22;9121;50.926;5.340;2022-10-18T03:05:58;16.30;99.90
17992;DHT22;9121;50.926;5.340;2022-10-18T03:08:24;16.30;99.90
17992;DHT22;9121;50.926;5.340;2022-10-18T03:10:51;16.30;99.90
17992;DHT22;9121;50.926;5.340;2022-10-18T03:13:18;16.20;99.90
17992;DHT22;9121;50.926;5.340;2022-10-18T03:15:45;16.30;99.90
17992;DHT22;9121;50.926;5.340;2022-10-18T03:18:12;16.30;99.90
17992;DHT22;9121;50.926;5.340;2022-10-18T03:20:40;16.40;99.90
17992;DHT22;9121;50.926;5.340;2022-10-18T03:23:08;16.40;99.90
17992;DHT22;9121;50.926;5.340;2022-10-18T03:25:35;16.40;99.90
17992;DHT22;9121;50.926;5.340;2022-10-18T03:28:02;16.50;99.90
17992;DHT22;9121;50.926;5.340;2022-10-18T03:30:29;16.40;99.90
17992;DHT22;9121;50.926;5.340;2022-10-18T03:32:56;16.50;99.90
17992;DHT22;9121;50.926;5.340;2022-10-18T03:35:23;16.50;99.90
17992;DHT22;9121;50.926;5.340;2022-10-18T03:37:49;16.50;99.90
17992;DHT22;9121;50.926;5.340;2022-10-18T03:40:18;16.40;99.90
17992;DHT22;9121;50.926;5.340;2022-10-18T03:42:45;16.40;99.90
17992;DHT22;9121;50.926;5.340;2022-10-18T03:45:12;16.40;99.90
17992;DHT22;9121;50.926;5.340;2022-10-18T03:47:39;16.50;99.90
17992;DHT22;9121;50.926;5.340;2022-10-18T03:50:07;16.50;99.90
17992;DHT22;9121;50.926;5.340;2022-10-18T03:52:34;16.50;99.90
17992;DHT22;9121;50.926;5.340;2022-10-18T03:55:01;16.60;99.90
17992;DHT22;9121;50.926;5.340;2022-10-18T03:57:29;16.60;99.90
17992;DHT22;9121;50.926;5.340;2022-10-18T03:59:56;16.60;99.90
17992;DHT22;9121;50.926;5.340;2022-10-18T04:02:23;16.60;99.90
17992;DHT22;9121;50.926;5.340;2022-10-18T04:04:50;16.50;99.90
17992;DHT22;9121;50.926;5.340;2022-10-18T04:07:17;16.40;99.90
17992;DHT22;9121;50.926;5.340;2022-10-18T04:09:44;16.50;99.90
17992;DHT22;9121;50.926;5.340;2022-10-18T04:12:11;16.50;99.90
17992;DHT22;9121;50.926;5.340;2022-10-18T04:14:39;16.50;99.90
17992;DHT22;9121;50.926;5.340;2022-10-18T04:17:06;16.50;99.90
17992;DHT22;9121;50.926;5.340;2022-10-18T04:19:33;16.60;99.90
17992;DHT22;9121;50.926;5.340;2022-10-18T04:22:00;16.50;99.90
17992;DHT22;9121;50.926;5.340;2022-10-18T04:24:27;16.50;99.90
17992;DHT22;9121;50.926;5.340;2022-10-18T04:26:54;16.50;99.90
17992;DHT22;9121;50.926;5.340;2022-10-18T04:29:21;16.50;99.90
17992;DHT22;9121;50.926;5.340;2022-10-18T04:31:49;16.40;99.90
17992;DHT22;9121;50.926;5.340;2022-10-18T04:34:16;16.40;99.90
17992;DHT22;9121;50.926;5.340;2022-10-18T04:36:43;16.40;99.90
17992;DHT22;9121;50.926;5.340;2022-10-18T04:39:10;16.40;99.90
17992;DHT22;9121;50.926;5.340;2022-10-18T04:41:37;16.40;99.90
17992;DHT22;9121;50.926;5.340;2022-10-18T04:44:04;16.50;99.90
17992;DHT22;9121;50.926;5.340;2022-10-18T04:46:31;16.50;99.90
17992;DHT22;9121;50.926;5.340;2022-10-18T04:48:59;16.50;99.90
17992;DHT22;9121;50.926;5.340;2022-10-18T04:51:26;16.50;99.90
17992;DHT22;9121;50.926;5.340;2022-10-18T04:53:53;16.50;99.90
17992;DHT22;9121;50.926;5.340;2022-10-18T04:56:20;16.50;99.90
17992;DHT22;9121;50.926;5.340;2022-10-18T04:58:47;16.50;99.90
17992;DHT22;9121;50.926;5.340;2022-10-18T05:01:14;16.40;99.90
17992;DHT22;9121;50.926;5.340;2022-10-18T05:03:41;16.40;99.90
17992;DHT22;9121;50.926;5.340;2022-10-18T05:06:10;16.30;99.90
17992;DHT22;9121;50.926;5.340;2022-10-18T05:08:37;16.40;99.90
17992;DHT22;9121;50.926;5.340;2022-10-18T05:11:04;16.40;99.90
17992;DHT22;9121;50.926;5.340;2022-10-18T05:13:31;16.40;99.90
17992;DHT22;9121;50.926;5.340;2022-10-18T05:15:58;16.40;99.90
17992;DHT22;9121;50.926;5.340;2022-10-18T05:18:25;16.40;99.90
17992;DHT22;9121;50.926;5.340;2022-10-18T05:20:52;16.30;99.90
17992;DHT22;9121;50.926;5.340;2022-10-18T05:23:20;16.40;99.90
17992;DHT22;9121;50.926;5.340;2022-10-18T05:25:47;16.30;99.90
17992;DHT22;9121;50.926;5.340;2022-10-18T05:28:15;16.40;99.90
17992;DHT22;9121;50.926;5.340;2022-10-18T05:30:42;16.40;99.90
17992;DHT22;9121;50.926;5.340;2022-10-18T05:33:09;16.40;99.90
17992;DHT22;9121;50.926;5.340;2022-10-18T05:35:36;16.40;99.90
17992;DHT22;9121;50.926;5.340;2022-10-18T05:38:04;16.40;99.90
17992;DHT22;9121;50.926;5.340;2022-10-18T05:40:33;16.40;99.90
17992;DHT22;9121;50.926;5.340;2022-10-18T05:43:00;16.30;99.90
17992;DHT22;9121;50.926;5.340;2022-10-18T05:45:28;16.30;99.90
17992;DHT22;9121;50.926;5.340;2022-10-18T05:47:55;16.30;99.90
17992;DHT22;9121;50.926;5.340;2022-10-18T05:50:22;16.30;99.90
17992;DHT22;9121;50.926;5.340;2022-10-18T05:52:49;16.40;99.90
17992;DHT22;9121;50.926;5.340;2022-10-18T05:55:16;16.30;99.90
17992;DHT22;9121;50.926;5.340;2022-10-18T05:57:48;16.30;99.90
17992;DHT22;9121;50.926;5.340;2022-10-18T06:00:15;16.30;99.90
17992;DHT22;9121;50.926;5.340;2022-10-18T06:02:42;16.30;99.90
17992;DHT22;9121;50.926;5.340;2022-10-18T06:05:09;16.30;99.90
17992;DHT22;9121;50.926;5.340;2022-10-18T06:07:36;16.30;99.90
17992;DHT22;9121;50.926;5.340;2022-10-18T06:10:03;16.20;99.90
17992;DHT22;9121;50.926;5.340;2022-10-18T06:12:30;16.20;99.90
17992;DHT22;9121;50.926;5.340;2022-10-18T06:14:59;16.20;99.90
17992;DHT22;9121;50.926;5.340;2022-10-18T06:17:26;16.20;99.90
17992;DHT22;9121;50.926;5.340;2022-10-18T06:19:53;16.20;99.90
17992;DHT22;9121;50.926;5.340;2022-10-18T06:22:20;16.10;99.90
17992;DHT22;9121;50.926;5.340;2022-10-18T06:24:47;16.10;99.90
17992;DHT22;9121;50.926;5.340;2022-10-18T06:27:14;16.10;99.90
17992;DHT22;9121;50.926;5.340;2022-10-18T06:29:41;16.10;99.90
17992;DHT22;9121;50.926;5.340;2022-10-18T06:32:10;16.10;99.90
17992;DHT22;9121;50.926;5.340;2022-10-18T06:34:37;16.10;99.90
17992;DHT22;9121;50.926;5.340;2022-10-18T06:37:04;16.10;99.90
17992;DHT22;9121;50.926;5.340;2022-10-18T06:39:31;16.10;99.90
17992;DHT22;9121;50.926;5.340;2022-10-18T06:41:58;16.00;99.90
17992;DHT22;9121;50.926;5.340;2022-10-18T06:44:25;16.00;99.90
17992;DHT22;9121;50.926;5.340;2022-10-18T06:46:52;16.00;99.90
17992;DHT22;9121;50.926;5.340;2022-10-18T06:49:21;16.10;99.90
17992;DHT22;9121;50.926;5.340;2022-10-18T06:51:48;16.10;99.90
17992;DHT22;9121;50.926;5.340;2022-10-18T06:54:15;16.10;99.90
17992;DHT22;9121;50.926;5.340;2022-10-18T06:56:42;16.10;99.90
17992;DHT22;9121;50.926;5.340;2022-10-18T06:59:11;16.10;99.90
17992;DHT22;9121;50.926;5.340;2022-10-18T07:01:38;16.10;99.90
17992;DHT22;9121;50.926;5.340;2022-10-18T07:04:05;16.20;99.90
17992;DHT22;9121;50.926;5.340;2022-10-18T07:06:34;16.20;99.90
17992;DHT22;9121;50.926;5.340;2022-10-18T07:09:01;16.20;99.90
17992;DHT22;9121;50.926;5.340;2022-10-18T07:11:28;16.20;99.90
17992;DHT22;9121;50.926;5.340;2022-10-18T07:14:00;16.20;99.90
17992;DHT22;9121;50.926;5.340;2022-10-18T07:16:30;16.30;99.90
17992;DHT22;9121;50.926;5.340;2022-10-18T07:18:57;16.30;99.90
17992;DHT22;9121;50.926;5.340;2022-10-18T07:21:25;16.30;99.90
17992;DHT22;9121;50.926;5.340;2022-10-18T07:23:54;16.40;99.90
17992;DHT22;9121;50.926;5.340;2022-10-18T07:26:23;16.40;99.90
17992;DHT22;9121;50.926;5.340;2022-10-18T07:28:54;16.40;99.90
17992;DHT22;9121;50.926;5.340;2022-10-18T07:31:23;16.40;99.90
17992;DHT22;9121;50.926;5.340;2022-10-18T07:33:50;16.40;99.90
17992;DHT22;9121;50.926;5.340;2022-10-18T07:36:18;16.40;99.90
17992;DHT22;9121;50.926;5.340;2022-10-18T07:38:45;16.30;99.90
17992;DHT22;9121;50.926;5.340;2022-10-18T07:41:14;16.30;99.90
17992;DHT22;9121;50.926;5.340;2022-10-18T07:43:42;16.40;99.90
17992;DHT22;9121;50.926;5.340;2022-10-18T07:46:10;16.30;99.90
17992;DHT22;9121;50.926;5.340;2022-10-18T07:48:37;16.40;99.90
17992;DHT22;9121;50.926;5.340;2022-10-18T07:51:05;16.40;99.90
17992;DHT22;9121;50.926;5.340;2022-10-18T07:53:32;16.40;99.90
17992;DHT22;9121;50.926;5.340;2022-10-18T07:56:00;16.50;99.90
17992;DHT22;9121;50.926;5.340;2022-10-18T07:58:30;16.50;99.90
17992;DHT22;9121;50.926;5.340;2022-10-18T08:01:01;16.50;99.90
17992;DHT22;9121;50.926;5.340;2022-10-18T08:03:28;16.50;99.90
17992;DHT22;9121;50.926;5.340;2022-10-18T08:05:55;16.60;99.90
17992;DHT22;9121;50.926;5.340;2022-10-18T08:08:22;16.60;99.90
17992;DHT22;9121;50.926;5.340;2022-10-18T08:10:49;16.60;99.90
17992;DHT22;9121;50.926;5.340;2022-10-18T08:13:16;16.70;99.90
17992;DHT22;9121;50.926;5.340;2022-10-18T08:15:45;16.70;99.90
17992;DHT22;9121;50.926;5.340;2022-10-18T08:18:12;16.70;99.90
17992;DHT22;9121;50.926;5.340;2022-10-18T08:20:42;16.70;99.90
17992;DHT22;9121;50.926;5.340;2022-10-18T08:23:09;16.60;99.90
17992;DHT22;9121;50.926;5.340;2022-10-18T08:25:36;16.60;99.90
17992;DHT22;9121;50.926;5.340;2022-10-18T08:28:03;16.60;99.90
17992;DHT22;9121;50.926;5.340;2022-10-18T08:30:30;16.70;99.90
17992;DHT22;9121;50.926;5.340;2022-10-18T08:32:58;16.80;99.90
17992;DHT22;9121;50.926;5.340;2022-10-18T08:35:25;16.90;99.90
17992;DHT22;9121;50.926;5.340;2022-10-18T08:37:52;17.00;99.90
17992;DHT22;9121;50.926;5.340;2022-10-18T08:40:20;16.90;99.90
17992;DHT22;9121;50.926;5.340;2022-10-18T08:42:56;16.90;99.90
17992;DHT22;9121;50.926;5.340;2022-10-18T08:45:25;16.90;99.90
17992;DHT22;9121;50.926;5.340;2022-10-18T08:47:54;16.90;99.90
17992;DHT22;9121;50.926;5.340;2022-10-18T08:50:27;16.80;99.90
17992;DHT22;9121;50.926;5.340;2022-10-18T08:53:00;16.80;99.90
17992;DHT22;9121;50.926;5.340;2022-10-18T08:55:31;16.90;99.90
17992;DHT22;9121;50.926;5.340;2022-10-18T08:58:01;17.00;99.90
17992;DHT22;9121;50.926;5.340;2022-10-18T09:00:33;17.00;99.90
17992;DHT22;9121;50.926;5.340;2022-10-18T09:03:20;17.00;99.90
17992;DHT22;9121;50.926;5.340;2022-10-18T09:05:52;17.20;99.90
17992;DHT22;9121;50.926;5.340;2022-10-18T09:08:46;17.10;99.90
17992;DHT22;9121;50.926;5.340;2022-10-18T09:11:26;17.20;99.90
17992;DHT22;9121;50.926;5.340;2022-10-18T09:14:09;17.20;99.90
17992;DHT22;9121;50.926;5.340;2022-10-18T09:16:44;17.20;99.90
17992;DHT22;9121;50.926;5.340;2022-10-18T09:19:22;17.30;99.90
17992;DHT22;9121;50.926;5.340;2022-10-18T09:21:59;17.40;99.90
17992;DHT22;9121;50.926;5.340;2022-10-18T09:24:36;17.40;99.90
17992;DHT22;9121;50.926;5.340;2022-10-18T09:27:11;17.40;99.90
17992;DHT22;9121;50.926;5.340;2022-10-18T09:29:53;17.30;99.90
17992;DHT22;9121;50.926;5.340;2022-10-18T09:32:28;17.20;99.90
17992;DHT22;9121;50.926;5.340;2022-10-18T09:35:01;17.20;99.90
17992;DHT22;9121;50.926;5.340;2022-10-18T09:37:33;17.20;99.90
17992;DHT22;9121;50.926;5.340;2022-10-18T09:40:10;17.20;99.90
17992;DHT22;9121;50.926;5.340;2022-10-18T09:42:41;17.30;99.90
17992;DHT22;9121;50.926;5.340;2022-10-18T09:45:19;17.30;99.90
17992;DHT22;9121;50.926;5.340;2022-10-18T09:47:57;17.40;99.90
17992;DHT22;9121;50.926;5.340;2022-10-18T09:50:33;17.40;99.90
17992;DHT22;9121;50.926;5.340;2022-10-18T09:53:10;17.30;99.90
17992;DHT22;9121;50.926;5.340;2022-10-18T09:55:46;17.30;99.90
17992;DHT22;9121;50.926;5.340;2022-10-18T09:58:18;17.30;99.90
17992;DHT22;9121;50.926;5.340;2022-10-18T10:00:48;17.20;99.90
17992;DHT22;9121;50.926;5.340;2022-10-18T10:03:16;17.30;99.90
17992;DHT22;9121;50.926;5.340;2022-10-18T10:05:43;17.40;99.90
17992;DHT22;9121;50.926;5.340;2022-10-18T10:08:12;17.50;99.90
17992;DHT22;9121;50.926;5.340;2022-10-18T10:10:44;17.60;99.90
17992;DHT22;9121;50.926;5.340;2022-10-18T10:13:16;17.70;99.90
17992;DHT22;9121;50.926;5.340;2022-10-18T10:15:51;17.60;99.90
17992;DHT22;9121;50.926;5.340;2022-10-18T10:18:21;17.70;99.90
17992;DHT22;9121;50.926;5.340;2022-10-18T10:20:50;17.90;99.90
17992;DHT22;9121;50.926;5.340;2022-10-18T10:23:24;18.00;99.90
17992;DHT22;9121;50.926;5.340;2022-10-18T10:25:54;18.00;99.90
17992;DHT22;9121;50.926;5.340;2022-10-18T10:28:23;18.00;99.90
17992;DHT22;9121;50.926;5.340;2022-10-18T10:30:51;18.00;99.90
17992;DHT22;9121;50.926;5.340;2022-10-18T10:33:31;17.90;99.90
17992;DHT22;9121;50.926;5.340;2022-10-18T10:36:00;17.90;99.90
17992;DHT22;9121;50.926;5.340;2022-10-18T10:38:30;17.80;99.90
17992;DHT22;9121;50.926;5.340;2022-10-18T10:40:58;17.90;99.90
17992;DHT22;9121;50.926;5.340;2022-10-18T10:43:26;18.00;99.90
17992;DHT22;9121;50.926;5.340;2022-10-18T10:46:00;18.10;99.90
17992;DHT22;9121;50.926;5.340;2022-10-18T10:48:31;18.30;99.90
17992;DHT22;9121;50.926;5.340;2022-10-18T10:51:04;18.50;99.90
17992;DHT22;9121;50.926;5.340;2022-10-18T10:53:55;18.50;99.90
17992;DHT22;9121;50.926;5.340;2022-10-18T10:56:25;18.60;99.90
17992;DHT22;9121;50.926;5.340;2022-10-18T10:58:54;18.50;99.90
17992;DHT22;9121;50.926;5.340;2022-10-18T11:01:29;18.20;99.90
17992;DHT22;9121;50.926;5.340;2022-10-18T11:03:59;18.10;99.90
17992;DHT22;9121;50.926;5.340;2022-10-18T11:06:49;18.10;99.90
17992;DHT22;9121;50.926;5.340;2022-10-18T11:09:43;18.10;99.90
17992;DHT22;9121;50.926;5.340;2022-10-18T11:15:17;18.50;99.90
17992;DHT22;9121;50.926;5.340;2022-10-18T11:17:52;18.60;99.90
17992;DHT22;9121;50.926;5.340;2022-10-18T11:20:26;18.60;99.90
17992;DHT22;9121;50.926;5.340;2022-10-18T11:23:00;18.80;99.90
17992;DHT22;9121;50.926;5.340;2022-10-18T11:28:28;19.00;99.90
17992;DHT22;9121;50.926;5.340;2022-10-18T11:31:11;18.90;99.90
17992;DHT22;9121;50.926;5.340;2022-10-18T11:33:51;19.00;99.90
17992;DHT22;9121;50.926;5.340;2022-10-18T11:36:28;19.20;99.90
17992;DHT22;9121;50.926;5.340;2022-10-18T11:39:02;19.50;99.90
17992;DHT22;9121;50.926;5.340;2022-10-18T11:41:37;19.60;99.90
17992;DHT22;9121;50.926;5.340;2022-10-18T11:44:15;19.60;99.90
17992;DHT22;9121;50.926;5.340;2022-10-18T11:46:51;19.50;99.90
17992;DHT22;9121;50.926;5.340;2022-10-18T11:49:43;19.60;99.90
17992;DHT22;9121;50.926;5.340;2022-10-18T11:52:20;19.60;99.90
17992;DHT22;9121;50.926;5.340;2022-10-18T11:55:09;19.70;99.90
17992;DHT22;9121;50.926;5.340;2022-10-18T11:57:44;19.60;99.90
17992;DHT22;9121;50.926;5.340;2022-10-18T12:00:24;19.30;99.90
17992;DHT22;9121;50.926;5.340;2022-10-18T12:03:13;19.50;99.90
17992;DHT22;9121;50.926;5.340;2022-10-18T12:05:43;19.60;99.90
17992;DHT22;9121;50.926;5.340;2022-10-18T12:08:13;19.60;99.90
17992;DHT22;9121;50.926;5.340;2022-10-18T12:10:44;19.40;99.90
17992;DHT22;9121;50.926;5.340;2022-10-18T12:13:19;19.30;99.90
17992;DHT22;9121;50.926;5.340;2022-10-18T12:15:48;19.30;99.90
17992;DHT22;9121;50.926;5.340;2022-10-18T12:18:18;19.40;99.90
17992;DHT22;9121;50.926;5.340;2022-10-18T12:20:48;19.20;99.90
17992;DHT22;9121;50.926;5.340;2022-10-18T12:23:19;19.20;99.90
17992;DHT22;9121;50.926;5.340;2022-10-18T12:25:51;19.20;99.90
17992;DHT22;9121;50.926;5.340;2022-10-18T12:28:28;19.50;99.90
17992;DHT22;9121;50.926;5.340;2022-10-18T12:31:00;19.90;99.90
17992;DHT22;9121;50.926;5.340;2022-10-18T12:33:43;20.60;99.90
17992;DHT22;9121;50.926;5.340;2022-10-18T12:36:27;21.40;99.90
17992;DHT22;9121;50.926;5.340;2022-10-18T12:38:57;22.10;99.90
17992;DHT22;9121;50.926;5.340;2022-10-18T12:41:28;22.60;99.90
17992;DHT22;9121;50.926;5.340;2022-10-18T12:43:59;23.00;99.90
17992;DHT22;9121;50.926;5.340;2022-10-18T12:46:43;23.00;99.90
17992;DHT22;9121;50.926;5.340;2022-10-18T12:49:11;22.60;99.90
17992;DHT22;9121;50.926;5.340;2022-10-18T12:51:49;22.70;99.90
17992;DHT22;9121;50.926;5.340;2022-10-18T12:54:21;23.40;99.90
17992;DHT22;9121;50.926;5.340;2022-10-18T12:56:49;23.90;99.90
17992;DHT22;9121;50.926;5.340;2022-10-18T12:59:44;24.20;99.90
17992;DHT22;9121;50.926;5.340;2022-10-18T13:02:35;24.70;99.90
17992;DHT22;9121;50.926;5.340;2022-10-18T13:05:47;25.70;99.90
17992;DHT22;9121;50.926;5.340;2022-10-18T13:08:39;25.50;99.90
17992;DHT22;9121;50.926;5.340;2022-10-18T13:11:30;25.00;99.90
17992;DHT22;9121;50.926;5.340;2022-10-18T13:14:30;24.20;99.90
17992;DHT22;9121;50.926;5.340;2022-10-18T13:17:11;23.50;99.90
17992;DHT22;9121;50.926;5.340;2022-10-18T13:19:50;23.30;99.90
17992;DHT22;9121;50.926;5.340;2022-10-18T13:22:43;23.10;99.90
17992;DHT22;9121;50.926;5.340;2022-10-18T13:25:20;23.30;99.90
17992;DHT22;9121;50.926;5.340;2022-10-18T13:27:53;23.10;99.90
17992;DHT22;9121;50.926;5.340;2022-10-18T13:30:40;23.40;99.90
17992;DHT22;9121;50.926;5.340;2022-10-18T13:33:24;23.50;99.90
17992;DHT22;9121;50.926;5.340;2022-10-18T13:35:55;23.30;99.90
17992;DHT22;9121;50.926;5.340;2022-10-18T13:38:44;23.30;99.90
17992;DHT22;9121;50.926;5.340;2022-10-18T13:41:15;23.20;99.90
17992;DHT22;9121;50.926;5.340;2022-10-18T13:44:08;23.20;99.90
17992;DHT22;9121;50.926;5.340;2022-10-18T14:08:17;22.70;99.90
17992;DHT22;9121;50.926;5.340;2022-10-18T14:10:54;22.40;99.90
17992;DHT22;9121;50.926;5.340;2022-10-18T14:13:24;22.10;99.90
17992;DHT22;9121;50.926;5.340;2022-10-18T14:15:56;21.90;99.90
17992;DHT22;9121;50.926;5.340;2022-10-18T14:18:28;21.70;99.90
17992;DHT22;9121;50.926;5.340;2022-10-18T14:21:00;21.40;99.90
17992;DHT22;9121;50.926;5.340;2022-10-18T14:23:33;21.20;99.90
17992;DHT22;9121;50.926;5.340;2022-10-18T14:26:10;21.00;99.90
17992;DHT22;9121;50.926;5.340;2022-10-18T14:28:38;20.90;99.90
17992;DHT22;9121;50.926;5.340;2022-10-18T14:31:10;20.80;99.90
17992;DHT22;9121;50.926;5.340;2022-10-18T14:33:41;20.80;99.90
17992;DHT22;9121;50.926;5.340;2022-10-18T14:36:10;20.60;99.90
17992;DHT22;9121;50.926;5.340;2022-10-18T14:38:47;20.50;99.90
17992;DHT22;9121;50.926;5.340;2022-10-18T14:41:20;20.40;99.90
17992;DHT22;9121;50.926;5.340;2022-10-18T14:43:48;20.50;99.90
17992;DHT22;9121;50.926;5.340;2022-10-18T14:46:18;20.40;99.90
17992;DHT22;9121;50.926;5.340;2022-10-18T14:48:54;20.40;99.90
17992;DHT22;9121;50.926;5.340;2022-10-18T14:51:21;20.30;99.90
17992;DHT22;9121;50.926;5.340;2022-10-18T14:53:51;20.30;99.90
17992;DHT22;9121;50.926;5.340;2022-10-18T14:56:22;20.30;99.90
17992;DHT22;9121;50.926;5.340;2022-10-18T14:58:50;20.20;99.90
17992;DHT22;9121;50.926;5.340;2022-10-18T15:01:20;20.20;99.90
17992;DHT22;9121;50.926;5.340;2022-10-18T15:03:48;20.20;99.90
17992;DHT22;9121;50.926;5.340;2022-10-18T15:06:17;20.20;99.90
17992;DHT22;9121;50.926;5.340;2022-10-18T15:08:46;20.20;99.90
17992;DHT22;9121;50.926;5.340;2022-10-18T15:11:16;20.20;99.90
17992;DHT22;9121;50.926;5.340;2022-10-18T15:13:47;20.20;99.90
17992;DHT22;9121;50.926;5.340;2022-10-18T15:16:16;20.10;99.90
17992;DHT22;9121;50.926;5.340;2022-10-18T15:18:47;20.10;99.90
17992;DHT22;9121;50.926;5.340;2022-10-18T15:21:24;20.00;99.90
17992;DHT22;9121;50.926;5.340;2022-10-18T15:23:52;19.90;99.90
17992;DHT22;9121;50.926;5.340;2022-10-18T15:26:23;19.90;99.90
17992;DHT22;9121;50.926;5.340;2022-10-18T15:28:52;19.90;99.90
17992;DHT22;9121;50.926;5.340;2022-10-18T15:31:25;19.80;99.90
17992;DHT22;9121;50.926;5.340;2022-10-18T15:33:53;19.80;99.90
17992;DHT22;9121;50.926;5.340;2022-10-18T15:36:26;19.80;99.90
17992;DHT22;9121;50.926;5.340;2022-10-18T15:39:07;19.80;99.90
17992;DHT22;9121;50.926;5.340;2022-10-18T15:41:42;19.70;99.90
17992;DHT22;9121;50.926;5.340;2022-10-18T15:44:24;19.60;99.90
17992;DHT22;9121;50.926;5.340;2022-10-18T15:46:55;19.60;99.90
17992;DHT22;9121;50.926;5.340;2022-10-18T15:49:54;19.50;99.90
17992;DHT22;9121;50.926;5.340;2022-10-18T15:52:37;19.60;99.90
17992;DHT22;9121;50.926;5.340;2022-10-18T15:55:43;19.60;99.90
17992;DHT22;9121;50.926;5.340;2022-10-18T15:58:16;19.60;99.90
17992;DHT22;9121;50.926;5.340;2022-10-18T16:00:44;19.50;99.90
17992;DHT22;9121;50.926;5.340;2022-10-18T16:03:15;19.40;99.90
17992;DHT22;9121;50.926;5.340;2022-10-18T16:05:43;19.30;99.90
17992;DHT22;9121;50.926;5.340;2022-10-18T16:08:21;19.20;99.90
17992;DHT22;9121;50.926;5.340;2022-10-18T16:10:50;19.20;99.90
17992;DHT22;9121;50.926;5.340;2022-10-18T16:13:19;19.10;99.90
17992;DHT22;9121;50.926;5.340;2022-10-18T16:15:46;19.10;99.90
17992;DHT22;9121;50.926;5.340;2022-10-18T16:18:15;19.00;99.90
17992;DHT22;9121;50.926;5.340;2022-10-18T16:20:43;18.90;99.90
17992;DHT22;9121;50.926;5.340;2022-10-18T16:23:15;18.90;99.90
17992;DHT22;9121;50.926;5.340;2022-10-18T16:25:42;18.90;99.90
17992;DHT22;9121;50.926;5.340;2022-10-18T16:28:12;18.90;99.90
17992;DHT22;9121;50.926;5.340;2022-10-18T16:30:42;18.80;99.90
17992;DHT22;9121;50.926;5.340;2022-10-18T16:33:09;18.80;99.90
17992;DHT22;9121;50.926;5.340;2022-10-18T16:35:36;18.70;99.90
17992;DHT22;9121;50.926;5.340;2022-10-18T16:38:03;18.70;99.90
17992;DHT22;9121;50.926;5.340;2022-10-18T16:40:30;18.60;99.90
17992;DHT22;9121;50.926;5.340;2022-10-18T16:42:58;18.60;99.90